createdAt,value
2023-05-05T00:01:33.099Z,11.20
2023-05-05T00:04:00.060Z,11.20
2023-05-05T00:06:28.389Z,11.20
2023-05-05T00:08:56.102Z,11.10
2023-05-05T00:11:22.933Z,11.10
2023-05-05T00:13:49.773Z,11.10
2023-05-05T00:16:16.481Z,11.10
2023-05-05T00:18:44.193Z,11.10
2023-05-05T00:21:10.933Z,11.10
2023-05-05T00:23:37.653Z,11.10
2023-05-05T00:26:04.445Z,11.10
2023-05-05T00:28:31.291Z,11.10
2023-05-05T00:30:58.371Z,11.10
2023-05-05T00:33:25.777Z,11.20
2023-05-05T00:35:52.696Z,11.20
2023-05-05T00:38:19.490Z,11.20
2023-05-05T00:40:46.352Z,11.20
2023-05-05T00:43:13.136Z,11.20
2023-05-05T00:45:42.930Z,11.20
2023-05-05T00:48:10.155Z,11.20
2023-05-05T00:50:38.174Z,11.20
2023-05-05T00:53:06.766Z,11.10
2023-05-05T00:55:34.716Z,11.00
2023-05-05T00:58:05.560Z,11.00
2023-05-05T01:00:33.012Z,11.00
2023-05-05T01:02:59.995Z,10.90
2023-05-05T01:05:54.389Z,10.90
2023-05-05T01:08:55.000Z,10.90
2023-05-05T01:11:32.084Z,10.90
2023-05-05T01:14:05.086Z,10.80
2023-05-05T01:16:34.563Z,10.80
2023-05-05T01:19:06.962Z,10.80
2023-05-05T01:22:00.762Z,10.80
2023-05-05T01:24:59.890Z,10.90
2023-05-05T01:27:45.057Z,10.90
2023-05-05T01:30:23.968Z,10.90
2023-05-05T01:32:56.678Z,10.90
2023-05-05T01:35:33.224Z,10.90
2023-05-05T01:38:09.012Z,10.80
2023-05-05T01:40:47.068Z,10.80
2023-05-05T01:43:17.718Z,10.80
2023-05-05T01:45:46.424Z,10.70
2023-05-05T01:48:17.220Z,10.70
2023-05-05T01:50:52.170Z,10.70
2023-05-05T01:53:21.108Z,10.70
2023-05-05T01:55:50.524Z,10.60
2023-05-05T01:58:18.308Z,10.60
2023-05-05T02:00:45.588Z,10.50
2023-05-05T02:03:14.718Z,10.50
2023-05-05T02:05:43.619Z,10.40
2023-05-05T02:08:11.449Z,10.40
2023-05-05T02:10:42.845Z,10.40
2023-05-05T02:13:12.607Z,10.30
2023-05-05T02:15:40.561Z,10.30
2023-05-05T02:18:07.653Z,10.30
2023-05-05T02:20:37.919Z,10.30
2023-05-05T02:23:06.369Z,10.30
2023-05-05T02:25:39.888Z,10.30
2023-05-05T02:28:14.956Z,10.30
2023-05-05T02:30:43.350Z,10.30
2023-05-05T02:33:13.346Z,10.30
2023-05-05T02:35:41.633Z,10.30
2023-05-05T02:38:19.392Z,10.30
2023-05-05T02:40:52.218Z,10.30
2023-05-05T02:43:22.307Z,10.40
2023-05-05T02:45:49.224Z,10.40
2023-05-05T02:48:16.847Z,10.40
2023-05-05T02:50:43.687Z,10.40
2023-05-05T02:53:26.121Z,10.50
2023-05-05T02:56:07.998Z,10.50
2023-05-05T02:58:44.431Z,10.50
2023-05-05T03:01:27.922Z,10.50
2023-05-05T03:04:08.001Z,10.50
2023-05-05T03:06:46.498Z,10.40
2023-05-05T03:09:30.071Z,10.40
2023-05-05T03:12:02.152Z,10.40
2023-05-05T03:14:35.296Z,10.50
2023-05-05T03:17:03.490Z,10.40
2023-05-05T03:19:31.326Z,10.40
2023-05-05T03:22:02.878Z,10.40
2023-05-05T03:24:29.961Z,10.40
2023-05-05T03:27:03.183Z,10.40
2023-05-05T03:29:34.685Z,10.30
2023-05-05T03:32:03.606Z,10.30
2023-05-05T03:34:30.592Z,10.20
2023-05-05T03:36:59.583Z,10.20
2023-05-05T03:39:26.336Z,10.10
2023-05-05T03:41:54.046Z,10.10
2023-05-05T03:44:22.393Z,10.10
2023-05-05T03:46:49.194Z,10.10
2023-05-05T03:49:17.896Z,10.10
2023-05-05T03:51:47.269Z,10.00
2023-05-05T03:54:14.852Z,10.00
2023-05-05T03:56:41.788Z,10.00
2023-05-05T03:59:10.039Z,10.00
2023-05-05T04:01:37.037Z,10.00
2023-05-05T04:04:05.081Z,10.00
2023-05-05T04:06:32.062Z,9.90
2023-05-05T04:08:58.948Z,10.00
2023-05-05T04:11:26.269Z,10.00
2023-05-05T04:13:54.317Z,10.00
2023-05-05T04:16:21.695Z,10.00
2023-05-05T04:18:48.910Z,10.00
2023-05-05T04:21:15.961Z,10.00
2023-05-05T04:23:43.368Z,10.10
2023-05-05T04:26:10.667Z,10.10
2023-05-05T04:28:37.637Z,10.20
2023-05-05T04:31:05.125Z,10.20
2023-05-05T04:33:35.298Z,10.30
2023-05-05T04:36:02.833Z,10.30
2023-05-05T04:38:29.769Z,10.40
2023-05-05T04:40:56.860Z,10.50
2023-05-05T04:43:23.746Z,10.60
2023-05-05T04:45:54.459Z,10.70
2023-05-05T04:48:23.682Z,10.80
2023-05-05T04:50:51.451Z,10.90
2023-05-05T04:53:18.366Z,11.00
2023-05-05T04:55:45.453Z,11.10
2023-05-05T04:58:12.179Z,11.30
2023-05-05T05:00:38.901Z,11.40
2023-05-05T05:03:05.875Z,11.60
2023-05-05T05:05:33.338Z,11.70
2023-05-05T05:08:00.167Z,11.90
2023-05-05T05:10:27.481Z,12.10
2023-05-05T05:12:54.469Z,12.20
2023-05-05T05:15:21.374Z,12.40
2023-05-05T05:17:48.323Z,12.60
2023-05-05T05:20:15.247Z,12.70
2023-05-05T05:22:42.157Z,12.90
2023-05-05T05:25:13.483Z,13.00
2023-05-05T05:27:41.682Z,13.10
2023-05-05T05:30:10.136Z,13.10
2023-05-05T05:32:37.777Z,13.20
2023-05-05T05:35:05.704Z,13.20
2023-05-05T05:37:35.278Z,13.20
2023-05-05T05:40:05.044Z,13.30
2023-05-05T05:42:33.864Z,13.30
2023-05-05T05:45:01.380Z,13.40
2023-05-05T05:47:28.275Z,13.40
2023-05-05T05:49:56.692Z,13.40
2023-05-05T05:52:23.534Z,13.50
2023-05-05T05:54:50.611Z,13.50
2023-05-05T05:57:17.476Z,13.60
2023-05-05T05:59:44.461Z,13.70
2023-05-05T06:02:11.357Z,13.70
2023-05-05T06:04:38.246Z,13.80
2023-05-05T06:07:05.134Z,13.90
2023-05-05T06:09:31.927Z,14.00
2023-05-05T06:11:58.691Z,14.10
2023-05-05T06:14:25.725Z,14.20
2023-05-05T06:16:52.805Z,14.40
2023-05-05T06:19:21.916Z,14.50
2023-05-05T06:21:49.107Z,14.60
2023-05-05T06:24:15.892Z,14.70
2023-05-05T06:26:42.798Z,14.80
2023-05-05T06:29:11.723Z,15.00
2023-05-05T06:31:39.230Z,15.10
2023-05-05T06:34:07.056Z,15.30
2023-05-05T06:36:34.315Z,15.40
2023-05-05T06:39:01.233Z,15.60
2023-05-05T06:41:27.949Z,15.70
2023-05-05T06:43:54.678Z,15.90
2023-05-05T06:46:21.546Z,16.10
2023-05-05T06:48:48.343Z,16.30
2023-05-05T06:51:15.551Z,16.40
2023-05-05T06:53:42.491Z,16.60
2023-05-05T06:56:09.272Z,16.80
2023-05-05T06:58:36.000Z,17.10
2023-05-05T07:01:04.042Z,17.30
2023-05-05T07:03:31.213Z,17.50
2023-05-05T07:05:58.106Z,17.80
2023-05-05T07:08:25.466Z,18.00
2023-05-05T07:10:52.194Z,18.20
2023-05-05T07:13:18.956Z,18.50
2023-05-05T07:15:46.434Z,18.90
2023-05-05T07:18:14.595Z,19.40
2023-05-05T07:20:41.727Z,20.10
2023-05-05T07:23:08.573Z,20.80
2023-05-05T07:25:36.009Z,21.60
2023-05-05T07:28:03.790Z,22.50
2023-05-05T07:30:30.701Z,23.20
2023-05-05T07:32:57.687Z,23.70
2023-05-05T07:35:24.534Z,24.30
2023-05-05T07:37:51.340Z,25.20
2023-05-05T07:40:18.294Z,25.80
2023-05-05T07:42:45.348Z,26.30
2023-05-05T07:45:12.231Z,26.60
2023-05-05T07:47:40.547Z,27.00
2023-05-05T07:50:08.465Z,27.50
2023-05-05T07:52:46.912Z,27.80
2023-05-05T07:55:18.428Z,28.50
2023-05-05T07:57:45.169Z,29.00
2023-05-05T08:00:13.447Z,29.50
2023-05-05T08:02:41.187Z,30.00
2023-05-05T08:05:09.023Z,30.50
2023-05-05T08:07:38.208Z,31.00
2023-05-05T08:10:05.658Z,31.50
2023-05-05T08:12:32.381Z,32.10
2023-05-05T08:14:59.193Z,32.40
2023-05-05T08:17:27.102Z,32.30
2023-05-05T08:19:53.910Z,32.30
2023-05-05T08:22:21.942Z,32.30
2023-05-05T08:24:48.719Z,32.20
2023-05-05T08:27:15.606Z,32.20
2023-05-05T08:29:42.596Z,32.40
2023-05-05T08:32:09.337Z,32.50
2023-05-05T08:34:36.094Z,32.40
2023-05-05T08:37:02.874Z,32.70
2023-05-05T08:39:29.676Z,32.80
2023-05-05T08:41:56.524Z,33.10
2023-05-05T08:44:23.370Z,33.40
2023-05-05T08:46:50.847Z,33.90
2023-05-05T08:49:18.789Z,34.40
2023-05-05T08:51:46.580Z,34.60
2023-05-05T08:54:20.009Z,34.40
2023-05-05T08:56:49.677Z,34.20
2023-05-05T08:59:17.472Z,34.10
2023-05-05T09:01:44.916Z,34.10
2023-05-05T09:04:11.854Z,34.10
2023-05-05T09:06:38.677Z,34.10
2023-05-05T09:09:06.718Z,34.20
2023-05-05T09:11:35.091Z,34.40
2023-05-05T09:14:01.937Z,34.50
2023-05-05T09:16:28.942Z,34.70
2023-05-05T09:19:05.117Z,34.70
2023-05-05T09:21:32.411Z,34.70
2023-05-05T09:24:12.742Z,34.70
2023-05-05T09:26:42.432Z,34.50
2023-05-05T09:29:09.526Z,34.60
2023-05-05T09:31:37.741Z,34.40
2023-05-05T09:34:23.212Z,33.90
2023-05-05T09:36:49.972Z,33.70
2023-05-05T09:39:20.491Z,33.80
2023-05-05T09:41:47.290Z,33.80
2023-05-05T09:44:17.353Z,33.70
2023-05-05T09:46:55.155Z,34.10
2023-05-05T09:49:26.786Z,34.40
2023-05-05T09:51:54.742Z,34.60
2023-05-05T09:54:29.453Z,34.70
2023-05-05T09:56:57.196Z,34.40
2023-05-05T09:59:24.478Z,34.50
2023-05-05T10:01:52.042Z,34.40
2023-05-05T10:04:31.076Z,34.30
2023-05-05T10:06:58.819Z,34.20
2023-05-05T10:09:27.209Z,33.80
2023-05-05T10:11:56.570Z,33.80
2023-05-05T10:14:25.193Z,33.90
2023-05-05T10:16:53.283Z,33.90
2023-05-05T10:19:21.930Z,33.60
2023-05-05T10:22:01.786Z,33.50
2023-05-05T10:24:39.336Z,33.20
2023-05-05T10:27:26.261Z,33.10
2023-05-05T10:30:06.340Z,33.00
2023-05-05T10:33:00.548Z,32.40
2023-05-05T10:35:36.726Z,32.10
2023-05-05T10:38:08.204Z,32.00
2023-05-05T10:40:35.275Z,32.00
2023-05-05T10:43:02.657Z,32.30
2023-05-05T10:45:30.567Z,32.60
2023-05-05T10:48:00.875Z,32.30
2023-05-05T10:50:32.905Z,32.40
2023-05-05T10:53:19.534Z,32.70
2023-05-05T10:56:04.975Z,33.20
2023-05-05T10:58:51.172Z,33.10
2023-05-05T11:01:33.589Z,32.30
2023-05-05T11:04:19.583Z,31.50
2023-05-05T11:07:22.674Z,31.70
2023-05-05T11:09:56.884Z,31.80
2023-05-05T11:12:23.826Z,32.30
2023-05-05T11:15:28.057Z,32.60
2023-05-05T11:17:57.090Z,33.60
2023-05-05T11:20:36.114Z,34.60
2023-05-05T11:23:02.914Z,35.00
2023-05-05T11:25:42.061Z,35.00
2023-05-05T11:28:21.160Z,35.00
2023-05-05T11:30:58.119Z,35.00
2023-05-05T11:33:38.109Z,35.00
2023-05-05T11:36:12.660Z,35.10
2023-05-05T11:38:39.443Z,35.60
2023-05-05T11:41:14.180Z,36.10
2023-05-05T11:43:43.732Z,36.60
2023-05-05T11:46:15.056Z,36.70
2023-05-05T11:48:46.187Z,36.50
2023-05-05T11:51:13.964Z,35.70
2023-05-05T11:53:50.189Z,34.60
2023-05-05T11:56:19.317Z,34.00
2023-05-05T11:58:47.063Z,33.30
2023-05-05T12:01:14.680Z,32.60
2023-05-05T12:03:42.000Z,31.40
2023-05-05T12:06:09.357Z,30.60
2023-05-05T12:08:40.009Z,30.20
2023-05-05T12:11:10.985Z,29.90
2023-05-05T12:13:37.843Z,29.60
2023-05-05T12:16:12.752Z,29.20
2023-05-05T12:18:40.296Z,29.00
2023-05-05T12:21:20.508Z,28.70
2023-05-05T12:23:47.493Z,28.70
2023-05-05T12:26:31.460Z,29.00
2023-05-05T12:28:59.606Z,29.20
2023-05-05T12:31:52.923Z,29.50
2023-05-05T12:34:21.285Z,30.20
2023-05-05T12:36:48.212Z,30.40
2023-05-05T12:39:15.239Z,30.40
2023-05-05T12:41:42.241Z,30.40
2023-05-05T12:44:09.110Z,30.80
2023-05-05T12:46:48.927Z,31.10
2023-05-05T12:49:17.650Z,31.00
2023-05-05T12:51:55.067Z,30.40
2023-05-05T12:54:24.351Z,30.00
2023-05-05T12:56:51.291Z,29.50
2023-05-05T12:59:24.124Z,29.50
2023-05-05T13:01:52.753Z,29.70
2023-05-05T13:04:21.553Z,29.50
2023-05-05T13:06:49.460Z,29.20
2023-05-05T13:09:26.950Z,28.80
2023-05-05T13:11:54.726Z,28.40
2023-05-05T13:14:21.692Z,28.40
2023-05-05T13:16:48.711Z,28.20
2023-05-05T13:19:15.522Z,28.20
2023-05-05T13:21:42.304Z,28.10
2023-05-05T13:24:21.374Z,27.90
2023-05-05T13:26:53.114Z,27.70
2023-05-05T13:29:19.977Z,27.60
2023-05-05T13:31:47.136Z,27.60
2023-05-05T13:34:14.711Z,27.70
2023-05-05T13:36:41.794Z,27.50
2023-05-05T13:39:08.934Z,27.50
2023-05-05T13:41:35.665Z,27.40
2023-05-05T13:44:05.646Z,27.30
2023-05-05T13:46:32.625Z,27.10
2023-05-05T13:48:59.482Z,27.00
2023-05-05T13:51:26.358Z,27.00
2023-05-05T13:53:53.322Z,27.00
2023-05-05T13:56:20.106Z,27.00
2023-05-05T13:58:46.968Z,26.90
2023-05-05T14:01:13.784Z,26.70
2023-05-05T14:03:40.764Z,26.50
2023-05-05T14:06:09.046Z,26.30
2023-05-05T14:08:35.830Z,26.20
2023-05-05T14:11:03.235Z,26.00
2023-05-05T14:13:30.230Z,25.90
2023-05-05T14:15:58.374Z,25.80
2023-05-05T14:18:25.979Z,25.60
2023-05-05T14:20:52.762Z,25.40
2023-05-05T14:23:19.709Z,25.10
2023-05-05T14:25:46.485Z,24.90
2023-05-05T14:28:13.452Z,24.70
2023-05-05T14:30:40.229Z,24.50
2023-05-05T14:33:07.042Z,24.20
2023-05-05T14:35:33.935Z,24.00
2023-05-05T14:38:00.790Z,23.90
2023-05-05T14:40:29.384Z,23.80
2023-05-05T14:42:56.135Z,23.70
2023-05-05T14:45:23.473Z,23.60
2023-05-05T14:47:50.255Z,23.50
2023-05-05T14:50:16.937Z,23.30
2023-05-05T14:52:44.451Z,23.20
2023-05-05T14:55:11.861Z,23.10
2023-05-05T14:57:38.825Z,23.00
2023-05-05T15:00:09.347Z,22.90
2023-05-05T15:02:36.216Z,22.80
2023-05-05T15:05:03.128Z,22.60
2023-05-05T15:07:29.908Z,22.40
2023-05-05T15:09:56.681Z,22.20
2023-05-05T15:12:23.536Z,22.00
2023-05-05T15:14:50.309Z,21.80
2023-05-05T15:17:16.998Z,21.60
2023-05-05T15:19:43.866Z,21.40
2023-05-05T15:22:10.598Z,21.20
2023-05-05T15:24:37.380Z,21.00
2023-05-05T15:27:04.316Z,20.70
2023-05-05T15:29:31.314Z,20.50
2023-05-05T15:31:58.260Z,20.20
2023-05-05T15:34:25.112Z,20.10
2023-05-05T15:36:51.912Z,20.00
2023-05-05T15:39:18.754Z,19.90
2023-05-05T15:41:45.644Z,19.80
2023-05-05T15:44:12.858Z,19.80
2023-05-05T15:46:39.770Z,19.70
2023-05-05T15:49:06.729Z,19.70
2023-05-05T15:51:33.460Z,19.70
2023-05-05T15:54:00.229Z,19.70
2023-05-05T15:56:27.520Z,19.60
2023-05-05T15:58:54.396Z,19.60
2023-05-05T16:01:21.288Z,19.60
2023-05-05T16:03:48.120Z,19.60
2023-05-05T16:06:14.986Z,19.60
2023-05-05T16:08:42.123Z,19.50
2023-05-05T16:11:08.863Z,19.50
2023-05-05T16:13:35.632Z,19.40
2023-05-05T16:16:02.381Z,19.20
2023-05-05T16:18:29.209Z,19.20
2023-05-05T16:20:55.971Z,19.20
2023-05-05T16:23:22.735Z,19.20
2023-05-05T16:25:49.548Z,19.20
2023-05-05T16:28:16.797Z,19.20
2023-05-05T16:30:43.576Z,19.30
2023-05-05T16:33:10.668Z,19.30
2023-05-05T16:35:37.490Z,19.40
2023-05-05T16:38:04.215Z,19.50
2023-05-05T16:40:30.956Z,19.60
2023-05-05T16:42:57.798Z,19.70
2023-05-05T16:45:25.836Z,19.70
2023-05-05T16:47:55.364Z,19.70
2023-05-05T16:50:23.329Z,19.60
2023-05-05T16:52:50.743Z,19.60
2023-05-05T16:55:17.618Z,19.60
2023-05-05T16:57:44.348Z,19.70
2023-05-05T17:00:12.190Z,19.70
2023-05-05T17:02:38.972Z,19.80
2023-05-05T17:05:06.413Z,19.80
2023-05-05T17:07:33.257Z,19.80
2023-05-05T17:10:00.151Z,19.90
2023-05-05T17:12:27.189Z,19.90
2023-05-05T17:14:54.659Z,19.90
2023-05-05T17:17:21.432Z,19.90
2023-05-05T17:19:48.181Z,20.00
2023-05-05T17:22:14.938Z,20.00
2023-05-05T17:24:41.784Z,19.90
2023-05-05T17:27:08.554Z,19.90
2023-05-05T17:29:41.187Z,19.90
2023-05-05T17:32:09.031Z,19.90
2023-05-05T17:34:36.016Z,19.90
2023-05-05T17:37:02.949Z,19.80
2023-05-05T17:39:29.986Z,19.80
2023-05-05T17:41:56.769Z,19.80
2023-05-05T17:44:23.642Z,19.70
2023-05-05T17:46:50.591Z,19.70
2023-05-05T17:49:17.455Z,19.70
2023-05-05T17:51:44.400Z,19.60
2023-05-05T17:54:11.507Z,19.50
2023-05-05T17:56:38.383Z,19.40
2023-05-05T17:59:05.244Z,19.50
2023-05-05T18:01:32.057Z,19.40
2023-05-05T18:03:58.904Z,19.30
2023-05-05T18:06:25.882Z,19.20
2023-05-05T18:08:52.850Z,19.20
2023-05-05T18:11:21.170Z,19.20
2023-05-05T18:13:47.997Z,19.10
2023-05-05T18:16:14.989Z,19.00
2023-05-05T18:18:41.849Z,18.80
2023-05-05T18:21:12.202Z,18.70
2023-05-05T18:23:40.210Z,18.50
2023-05-05T18:26:07.429Z,18.30
2023-05-05T18:28:34.203Z,17.80
2023-05-05T18:31:01.011Z,17.50
2023-05-05T18:33:27.887Z,17.40
2023-05-05T18:35:54.651Z,17.30
2023-05-05T18:38:21.504Z,17.20
2023-05-05T18:40:48.454Z,17.00
2023-05-05T18:43:15.240Z,16.90
2023-05-05T18:45:42.124Z,16.80
2023-05-05T18:48:09.007Z,16.70
2023-05-05T18:50:37.111Z,16.70
2023-05-05T18:53:04.333Z,16.70
2023-05-05T18:55:31.149Z,16.70
2023-05-05T18:57:58.021Z,16.60
2023-05-05T19:00:24.807Z,16.60
2023-05-05T19:02:51.767Z,16.50
2023-05-05T19:05:18.723Z,16.50
2023-05-05T19:07:45.744Z,16.40
2023-05-05T19:10:12.705Z,16.20
2023-05-05T19:12:39.581Z,16.20
2023-05-05T19:15:07.009Z,16.20
2023-05-05T19:17:34.164Z,16.20
2023-05-05T19:20:00.978Z,16.20
2023-05-05T19:22:27.848Z,16.20
2023-05-05T19:24:54.629Z,16.30
2023-05-05T19:27:21.431Z,16.30
2023-05-05T19:29:52.491Z,16.30
2023-05-05T19:32:20.887Z,16.30
2023-05-05T19:34:48.142Z,16.30
2023-05-05T19:37:14.927Z,16.30
2023-05-05T19:39:44.312Z,16.40
2023-05-05T19:42:11.515Z,16.40
2023-05-05T19:44:38.344Z,16.50
2023-05-05T19:47:05.225Z,16.50
2023-05-05T19:49:32.005Z,16.50
2023-05-05T19:51:59.107Z,16.50
2023-05-05T19:54:26.671Z,16.40
2023-05-05T19:56:55.181Z,16.40
2023-05-05T19:59:22.099Z,16.40
2023-05-05T20:01:49.049Z,16.40
2023-05-05T20:04:15.938Z,16.50
2023-05-05T20:06:42.776Z,16.50
2023-05-05T20:09:09.622Z,16.50
2023-05-05T20:11:36.814Z,16.50
2023-05-05T20:14:03.741Z,16.50
2023-05-05T20:16:31.285Z,16.50
2023-05-05T20:18:58.349Z,16.50
2023-05-05T20:21:25.102Z,16.50
2023-05-05T20:23:54.380Z,16.50
2023-05-05T20:26:21.694Z,16.40
2023-05-05T20:28:48.453Z,16.30
2023-05-05T20:31:15.435Z,16.20
2023-05-05T20:33:42.509Z,16.10
2023-05-05T20:36:09.520Z,16.00
2023-05-05T20:38:36.347Z,16.00
2023-05-05T20:41:03.757Z,15.90
2023-05-05T20:43:30.545Z,16.00
2023-05-05T20:45:57.246Z,16.10
2023-05-05T20:48:24.078Z,16.20
2023-05-05T20:50:51.280Z,16.20
2023-05-05T20:53:19.184Z,16.20
2023-05-05T20:55:46.098Z,16.10
2023-05-05T20:58:12.994Z,16.10
2023-05-05T21:00:39.923Z,15.90
2023-05-05T21:03:06.974Z,15.80
2023-05-05T21:05:33.786Z,15.70
2023-05-05T21:08:01.286Z,15.70
2023-05-05T21:10:28.963Z,15.70
2023-05-05T21:12:55.947Z,15.70
2023-05-05T21:15:23.023Z,15.60
2023-05-05T21:17:49.840Z,15.60
2023-05-05T21:20:18.529Z,15.60
2023-05-05T21:22:45.663Z,15.70
2023-05-05T21:25:17.787Z,15.60
2023-05-05T21:27:45.495Z,15.60
2023-05-05T21:30:12.825Z,15.50
2023-05-05T21:32:40.589Z,15.40
2023-05-05T21:35:08.750Z,15.40
2023-05-05T21:37:37.677Z,15.40
2023-05-05T21:40:05.887Z,15.40
2023-05-05T21:42:32.751Z,15.40
2023-05-05T21:44:59.555Z,15.40
2023-05-05T21:47:26.830Z,15.50
2023-05-05T21:49:53.594Z,15.50
2023-05-05T21:52:20.371Z,15.40
2023-05-05T21:54:47.219Z,15.40
2023-05-05T21:57:13.898Z,15.30
2023-05-05T21:59:41.277Z,15.20
2023-05-05T22:02:08.117Z,15.10
2023-05-05T22:04:34.878Z,15.00
2023-05-05T22:07:01.643Z,15.00
2023-05-05T22:09:28.364Z,15.00
2023-05-05T22:11:55.207Z,15.00
2023-05-05T22:14:22.049Z,15.00
2023-05-05T22:16:48.755Z,15.00
2023-05-05T22:19:15.792Z,14.80
2023-05-05T22:21:42.606Z,14.80
2023-05-05T22:24:09.386Z,14.70
2023-05-05T22:26:36.175Z,14.60
2023-05-05T22:29:02.906Z,14.50
2023-05-05T22:31:30.647Z,14.40
2023-05-05T22:33:57.599Z,14.30
2023-05-05T22:36:24.469Z,14.30
2023-05-05T22:38:51.524Z,14.20
2023-05-05T22:41:18.354Z,14.20
2023-05-05T22:43:45.184Z,14.10
2023-05-05T22:46:12.136Z,14.10
2023-05-05T22:48:38.912Z,14.00
2023-05-05T22:51:06.455Z,14.00
2023-05-05T22:53:33.244Z,14.00
2023-05-05T22:55:59.955Z,14.00
2023-05-05T22:58:27.069Z,14.00
2023-05-05T23:00:53.799Z,14.00
2023-05-05T23:03:20.596Z,13.90
2023-05-05T23:05:47.321Z,13.90
2023-05-05T23:08:14.064Z,13.90
2023-05-05T23:10:40.890Z,13.90
2023-05-05T23:13:07.800Z,13.80
2023-05-05T23:15:35.064Z,13.70
2023-05-05T23:18:01.880Z,13.70
2023-05-05T23:20:28.836Z,13.70
2023-05-05T23:22:55.820Z,13.70
2023-05-05T23:25:22.536Z,13.70
2023-05-05T23:27:49.365Z,13.70
2023-05-05T23:30:16.391Z,13.70
2023-05-05T23:32:44.809Z,13.70
2023-05-05T23:35:12.144Z,13.70
2023-05-05T23:37:39.102Z,13.70
2023-05-05T23:40:06.805Z,13.70
2023-05-05T23:42:33.559Z,13.60
2023-05-05T23:45:00.803Z,13.50
2023-05-05T23:47:27.648Z,13.50
2023-05-05T23:49:54.366Z,13.50
2023-05-05T23:52:21.787Z,13.50
2023-05-05T23:54:48.592Z,13.50
2023-05-05T23:57:15.956Z,13.50
2023-05-05T23:59:42.686Z,13.50
